createdAt,value
2023-05-03T00:01:02.224Z,54.16
2023-05-03T00:03:52.701Z,54.44
2023-05-03T00:06:40.476Z,54.70
2023-05-03T00:09:28.135Z,55.32
2023-05-03T00:12:15.743Z,55.56
2023-05-03T00:15:03.283Z,55.20
2023-05-03T00:17:51.442Z,55.34
2023-05-03T00:20:39.065Z,55.53
2023-05-03T00:23:28.302Z,55.60
2023-05-03T00:26:15.809Z,55.85
2023-05-03T00:29:03.577Z,55.75
2023-05-03T00:31:51.074Z,55.27
2023-05-03T00:34:39.095Z,55.20
2023-05-03T00:37:27.012Z,54.67
2023-05-03T00:40:18.585Z,54.60
2023-05-03T00:43:06.483Z,54.34
2023-05-03T00:45:59.374Z,54.86
2023-05-03T00:48:56.177Z,54.10
2023-05-03T00:51:43.738Z,54.75
2023-05-03T00:54:33.137Z,54.40
2023-05-03T00:57:22.606Z,54.30
2023-05-03T01:00:10.789Z,54.29
2023-05-03T01:02:58.568Z,53.83
2023-05-03T01:06:13.854Z,53.98
2023-05-03T01:09:13.795Z,53.98
2023-05-03T01:12:01.136Z,54.02
2023-05-03T01:15:10.452Z,53.30
2023-05-03T01:18:03.297Z,53.15
2023-05-03T01:20:51.833Z,53.03
2023-05-03T01:23:47.083Z,53.59
2023-05-03T01:26:34.713Z,53.22
2023-05-03T01:29:22.281Z,52.97
2023-05-03T01:32:16.249Z,53.00
2023-05-03T01:35:21.203Z,52.82
2023-05-03T01:38:09.637Z,54.54
2023-05-03T01:41:01.714Z,55.90
2023-05-03T01:43:49.720Z,55.65
2023-05-03T01:46:44.691Z,55.38
2023-05-03T01:49:33.264Z,56.07
2023-05-03T01:52:20.841Z,57.41
2023-05-03T01:55:08.744Z,58.58
2023-05-03T01:57:56.195Z,58.29
2023-05-03T02:00:45.662Z,58.17
2023-05-03T02:03:33.453Z,58.66
2023-05-03T02:06:21.039Z,58.61
2023-05-03T02:09:08.677Z,58.99
2023-05-03T02:12:08.320Z,59.27
2023-05-03T02:14:56.516Z,59.25
2023-05-03T02:17:45.487Z,59.62
2023-05-03T02:20:37.704Z,59.82
2023-05-03T02:23:25.316Z,60.16
2023-05-03T02:26:14.910Z,60.36
2023-05-03T02:29:03.934Z,60.86
2023-05-03T02:31:53.632Z,59.82
2023-05-03T02:34:41.665Z,59.38
2023-05-03T02:37:31.574Z,60.69
2023-05-03T02:40:21.730Z,62.58
2023-05-03T02:43:09.968Z,61.42
2023-05-03T02:45:57.777Z,61.52
2023-05-03T02:48:46.654Z,61.33
2023-05-03T02:51:35.756Z,60.72
2023-05-03T02:54:23.736Z,61.22
2023-05-03T02:57:14.086Z,61.21
2023-05-03T03:00:02.142Z,61.20
2023-05-03T03:02:50.363Z,61.01
2023-05-03T03:05:38.179Z,60.83
2023-05-03T03:08:25.852Z,61.15
2023-05-03T03:11:15.863Z,61.56
2023-05-03T03:14:03.383Z,62.28
2023-05-03T03:16:51.866Z,62.75
2023-05-03T03:19:39.387Z,62.05
2023-05-03T03:22:26.936Z,62.21
2023-05-03T03:25:14.448Z,62.55
2023-05-03T03:28:02.033Z,62.51
2023-05-03T03:30:50.923Z,62.48
2023-05-03T03:33:43.268Z,62.86
2023-05-03T03:36:38.029Z,62.76
2023-05-03T03:39:25.899Z,62.24
2023-05-03T03:42:14.740Z,62.46
2023-05-03T03:45:03.148Z,62.93
2023-05-03T03:47:51.583Z,62.58
2023-05-03T03:50:42.743Z,62.23
2023-05-03T03:53:31.534Z,62.47
2023-05-03T03:56:19.046Z,62.43
2023-05-03T03:59:09.156Z,62.43
2023-05-03T04:01:56.965Z,63.59
2023-05-03T04:04:44.751Z,63.66
2023-05-03T04:07:32.387Z,63.04
2023-05-03T04:10:20.143Z,63.23
2023-05-03T04:13:07.629Z,64.28
2023-05-03T04:15:56.890Z,65.74
2023-05-03T04:18:45.540Z,65.06
2023-05-03T04:21:33.209Z,65.19
2023-05-03T04:24:21.262Z,65.39
2023-05-03T04:27:09.842Z,64.81
2023-05-03T04:30:00.322Z,65.75
2023-05-03T04:32:48.164Z,65.68
2023-05-03T04:35:36.256Z,65.68
2023-05-03T04:38:29.041Z,64.89
2023-05-03T04:41:19.059Z,64.60
2023-05-03T04:44:08.112Z,64.76
2023-05-03T04:46:56.255Z,64.87
2023-05-03T04:49:47.154Z,65.07
2023-05-03T04:52:35.064Z,65.67
2023-05-03T04:55:22.659Z,65.61
2023-05-03T04:58:10.438Z,66.94
2023-05-03T05:00:59.120Z,66.01
2023-05-03T05:03:50.022Z,66.30
2023-05-03T05:06:42.392Z,65.85
2023-05-03T05:09:33.577Z,65.28
2023-05-03T05:12:23.506Z,65.06
2023-05-03T05:15:11.483Z,65.67
2023-05-03T05:18:00.235Z,65.10
2023-05-03T05:20:48.055Z,65.33
2023-05-03T05:23:36.414Z,65.50
2023-05-03T05:26:26.075Z,65.13
2023-05-03T05:29:13.689Z,64.78
2023-05-03T05:32:03.366Z,64.95
2023-05-03T05:34:55.359Z,64.90
2023-05-03T05:37:45.014Z,64.84
2023-05-03T05:40:33.724Z,64.55
2023-05-03T05:43:22.384Z,64.75
2023-05-03T05:46:10.331Z,64.58
2023-05-03T05:48:57.921Z,64.62
2023-05-03T05:51:45.830Z,64.11
2023-05-03T05:54:33.659Z,63.52
2023-05-03T05:57:21.246Z,64.31
2023-05-03T06:00:14.920Z,63.60
2023-05-03T06:03:04.603Z,63.63
2023-05-03T06:05:52.212Z,63.26
2023-05-03T06:08:41.045Z,62.81
2023-05-03T06:11:29.548Z,62.58
2023-05-03T06:14:19.367Z,62.95
2023-05-03T06:17:07.436Z,62.69
2023-05-03T06:19:54.953Z,62.60
2023-05-03T06:22:42.485Z,63.22
2023-05-03T06:25:31.657Z,62.72
2023-05-03T06:28:19.328Z,62.71
2023-05-03T06:31:06.849Z,62.59
2023-05-03T06:33:54.401Z,62.12
2023-05-03T06:36:41.990Z,61.61
2023-05-03T06:39:29.709Z,60.93
2023-05-03T06:42:17.689Z,61.35
2023-05-03T06:45:06.125Z,61.10
2023-05-03T06:47:53.664Z,60.80
2023-05-03T06:50:41.276Z,60.81
2023-05-03T06:53:29.615Z,60.44
2023-05-03T06:56:17.047Z,60.36
2023-05-03T06:59:04.748Z,60.73
2023-05-03T07:01:52.376Z,61.09
2023-05-03T07:04:39.984Z,61.63
2023-05-03T07:07:27.980Z,59.78
2023-05-03T07:10:15.557Z,59.69
2023-05-03T07:13:03.063Z,60.27
2023-05-03T07:15:50.754Z,59.40
2023-05-03T07:18:38.242Z,59.66
2023-05-03T07:21:26.981Z,58.25
2023-05-03T07:24:14.801Z,57.73
2023-05-03T07:27:02.334Z,58.99
2023-05-03T07:29:49.866Z,58.51
2023-05-03T07:32:37.642Z,58.46
2023-05-03T07:35:26.868Z,59.40
2023-05-03T07:38:14.656Z,59.74
2023-05-03T07:41:02.320Z,57.48
2023-05-03T07:43:50.012Z,57.36
2023-05-03T07:46:37.486Z,58.64
2023-05-03T07:49:25.097Z,57.99
2023-05-03T07:52:12.587Z,58.56
2023-05-03T07:55:00.306Z,57.02
2023-05-03T07:57:47.794Z,55.98
2023-05-03T08:00:35.481Z,55.47
2023-05-03T08:03:23.905Z,55.72
2023-05-03T08:06:12.040Z,55.37
2023-05-03T08:08:59.645Z,54.92
2023-05-03T08:11:47.306Z,55.37
2023-05-03T08:14:36.670Z,55.44
2023-05-03T08:17:24.308Z,54.84
2023-05-03T08:20:13.402Z,54.33
2023-05-03T08:23:01.679Z,53.97
2023-05-03T08:25:49.286Z,53.36
2023-05-03T08:28:36.921Z,53.40
2023-05-03T08:31:24.675Z,53.69
2023-05-03T08:34:13.194Z,53.87
2023-05-03T08:37:01.341Z,53.46
2023-05-03T08:39:48.873Z,53.05
2023-05-03T08:42:39.203Z,53.01
2023-05-03T08:45:26.661Z,52.90
2023-05-03T08:48:14.431Z,52.59
2023-05-03T08:51:04.751Z,51.99
2023-05-03T08:53:52.609Z,53.11
2023-05-03T08:56:42.425Z,52.51
2023-05-03T08:59:30.361Z,51.51
2023-05-03T09:02:18.089Z,50.81
2023-05-03T09:05:15.605Z,50.73
2023-05-03T09:08:10.093Z,50.41
2023-05-03T09:10:58.019Z,49.75
2023-05-03T09:13:45.727Z,49.58
2023-05-03T09:16:33.438Z,49.27
2023-05-03T09:19:21.644Z,49.84
2023-05-03T09:22:09.161Z,49.18
2023-05-03T09:24:58.669Z,48.79
2023-05-03T09:28:01.200Z,49.28
2023-05-03T09:30:49.650Z,50.30
2023-05-03T09:33:37.426Z,49.37
2023-05-03T09:36:25.224Z,48.26
2023-05-03T09:39:19.269Z,48.22
2023-05-03T09:42:16.663Z,47.81
2023-05-03T09:45:05.049Z,48.09
2023-05-03T09:47:55.723Z,47.56
2023-05-03T09:50:43.645Z,47.79
2023-05-03T09:53:32.730Z,47.95
2023-05-03T09:56:22.726Z,48.52
2023-05-03T09:59:10.349Z,48.45
2023-05-03T10:01:59.870Z,48.18
2023-05-03T10:04:52.572Z,48.47
2023-05-03T10:07:41.003Z,48.56
2023-05-03T10:10:31.026Z,48.32
2023-05-03T10:13:18.752Z,48.60
2023-05-03T10:16:13.886Z,48.53
2023-05-03T10:19:12.045Z,48.43
2023-05-03T10:22:08.847Z,48.03
2023-05-03T10:25:02.986Z,47.34
2023-05-03T10:27:52.475Z,47.93
2023-05-03T10:30:40.424Z,47.83
2023-05-03T10:33:32.708Z,47.55
2023-05-03T10:36:20.342Z,47.91
2023-05-03T10:39:14.563Z,48.08
2023-05-03T10:42:03.842Z,47.55
2023-05-03T10:44:55.219Z,47.43
2023-05-03T10:47:42.857Z,47.33
2023-05-03T10:50:30.650Z,47.86
2023-05-03T10:53:37.547Z,47.35
2023-05-03T10:56:25.041Z,47.09
2023-05-03T10:59:12.546Z,47.23
2023-05-03T11:02:00.518Z,47.02
2023-05-03T11:04:48.379Z,46.04
2023-05-03T11:07:35.904Z,45.93
2023-05-03T11:10:23.744Z,46.74
2023-05-03T11:13:12.142Z,46.55
2023-05-03T11:16:00.943Z,46.48
2023-05-03T11:18:48.813Z,47.29
2023-05-03T11:21:36.437Z,47.29
2023-05-03T11:24:23.968Z,46.64
2023-05-03T11:27:13.983Z,46.70
2023-05-03T11:30:01.421Z,47.15
2023-05-03T11:32:49.862Z,46.58
2023-05-03T11:35:37.786Z,46.47
2023-05-03T11:38:25.997Z,45.87
2023-05-03T11:41:18.943Z,46.95
2023-05-03T11:44:16.243Z,47.03
2023-05-03T11:47:05.628Z,46.52
2023-05-03T11:49:57.821Z,46.70
2023-05-03T11:52:46.501Z,46.34
2023-05-03T11:55:34.555Z,46.81
2023-05-03T11:58:24.935Z,46.66
2023-05-03T12:01:12.502Z,46.94
2023-05-03T12:04:05.443Z,46.26
2023-05-03T12:06:54.566Z,45.89
2023-05-03T12:09:45.580Z,46.81
2023-05-03T12:12:42.448Z,46.26
2023-05-03T12:15:33.880Z,45.59
2023-05-03T12:18:22.043Z,44.72
2023-05-03T12:21:30.783Z,45.37
2023-05-03T12:24:20.525Z,44.97
2023-05-03T12:27:08.757Z,44.87
2023-05-03T12:32:44.587Z,44.23
2023-05-03T12:35:34.236Z,43.49
2023-05-03T12:38:24.301Z,42.33
2023-05-03T12:41:15.712Z,42.24
2023-05-03T12:44:03.639Z,41.55
2023-05-03T12:46:53.211Z,41.41
2023-05-03T12:49:45.778Z,41.70
2023-05-03T12:52:37.842Z,42.25
2023-05-03T12:55:27.029Z,42.45
2023-05-03T12:58:40.471Z,42.17
2023-05-03T13:02:18.616Z,41.67
2023-05-03T13:07:32.040Z,41.66
2023-05-03T13:13:13.552Z,40.86
2023-05-03T13:16:02.063Z,41.00
2023-05-03T13:18:54.997Z,41.37
2023-05-03T13:21:42.888Z,40.42
2023-05-03T13:24:30.453Z,41.22
2023-05-03T13:27:18.264Z,41.35
2023-05-03T13:30:06.609Z,41.73
2023-05-03T13:32:54.153Z,41.64
2023-05-03T13:35:41.738Z,41.70
2023-05-03T13:38:29.267Z,40.42
2023-05-03T13:41:17.257Z,40.55
2023-05-03T13:44:05.044Z,38.65
2023-05-03T13:46:52.832Z,38.15
2023-05-03T13:49:40.716Z,38.72
2023-05-03T13:52:28.232Z,37.74
2023-05-03T13:55:15.684Z,36.20
2023-05-03T13:58:03.164Z,35.67
2023-05-03T14:00:50.785Z,35.64
2023-05-03T14:03:38.260Z,36.18
2023-05-03T14:06:25.942Z,36.13
2023-05-03T14:09:13.973Z,36.54
2023-05-03T14:12:03.089Z,36.51
2023-05-03T14:14:50.700Z,36.76
2023-05-03T14:17:38.511Z,36.65
2023-05-03T14:20:25.955Z,37.29
2023-05-03T14:23:13.561Z,37.01
2023-05-03T14:26:02.286Z,36.46
2023-05-03T14:28:49.847Z,37.04
2023-05-03T14:31:37.597Z,36.77
2023-05-03T14:34:25.294Z,36.46
2023-05-03T14:37:12.996Z,36.72
2023-05-03T14:40:00.706Z,36.53
2023-05-03T14:42:48.942Z,35.87
2023-05-03T14:45:36.616Z,35.34
2023-05-03T14:48:24.148Z,36.14
2023-05-03T14:51:11.679Z,35.70
2023-05-03T14:53:59.433Z,35.68
2023-05-03T14:56:47.082Z,34.57
2023-05-03T14:59:34.596Z,35.03
2023-05-03T15:02:22.782Z,35.15
2023-05-03T15:05:11.133Z,36.75
2023-05-03T15:08:00.056Z,37.50
2023-05-03T15:10:47.825Z,37.12
2023-05-03T15:13:35.758Z,36.45
2023-05-03T15:16:23.562Z,36.59
2023-05-03T15:19:11.163Z,36.37
2023-05-03T15:21:59.009Z,35.80
2023-05-03T15:24:47.116Z,36.28
2023-05-03T15:27:34.614Z,35.78
2023-05-03T15:30:22.217Z,36.31
2023-05-03T15:33:11.977Z,35.51
2023-05-03T15:35:59.514Z,34.90
2023-05-03T15:38:50.257Z,35.28
2023-05-03T15:41:37.924Z,34.55
2023-05-03T15:44:25.569Z,34.31
2023-05-03T15:47:13.071Z,34.12
2023-05-03T15:50:02.070Z,34.44
2023-05-03T15:52:49.935Z,34.15
2023-05-03T15:55:37.790Z,34.94
2023-05-03T15:58:26.157Z,34.47
2023-05-03T16:01:14.047Z,34.07
2023-05-03T16:04:01.657Z,34.54
2023-05-03T16:06:49.099Z,35.21
2023-05-03T16:09:36.846Z,35.04
2023-05-03T16:12:24.589Z,35.79
2023-05-03T16:15:12.315Z,34.70
2023-05-03T16:17:59.905Z,34.09
2023-05-03T16:20:48.655Z,34.57
2023-05-03T16:23:36.257Z,35.51
2023-05-03T16:26:24.138Z,35.79
2023-05-03T16:29:11.734Z,36.08
2023-05-03T16:31:59.368Z,36.11
2023-05-03T16:34:48.479Z,36.16
2023-05-03T16:37:38.065Z,35.40
2023-05-03T16:40:25.627Z,36.37
2023-05-03T16:43:15.502Z,36.29
2023-05-03T16:46:03.144Z,36.98
2023-05-03T16:48:50.773Z,37.49
2023-05-03T16:51:39.684Z,37.13
2023-05-03T16:54:27.786Z,36.64
2023-05-03T16:57:15.219Z,36.67
2023-05-03T17:00:09.567Z,36.82
2023-05-03T17:02:57.572Z,36.93
2023-05-03T17:05:45.173Z,37.00
2023-05-03T17:08:33.057Z,37.08
2023-05-03T17:11:22.383Z,37.46
2023-05-03T17:14:09.947Z,38.01
2023-05-03T17:16:57.640Z,38.24
2023-05-03T17:19:45.237Z,37.74
2023-05-03T17:22:32.999Z,38.08
2023-05-03T17:25:21.221Z,37.86
2023-05-03T17:28:09.600Z,38.08
2023-05-03T17:30:57.369Z,38.33
2023-05-03T17:33:45.746Z,38.13
2023-05-03T17:36:33.898Z,38.62
2023-05-03T17:39:21.490Z,38.78
2023-05-03T17:42:09.333Z,38.77
2023-05-03T17:44:57.948Z,39.75
2023-05-03T17:47:46.036Z,40.49
2023-05-03T17:50:33.577Z,39.28
2023-05-03T17:53:21.093Z,38.77
2023-05-03T17:56:15.973Z,39.11
2023-05-03T17:59:03.677Z,39.66
2023-05-03T18:01:51.236Z,39.48
2023-05-03T18:04:39.197Z,39.59
2023-05-03T18:07:27.369Z,39.68
2023-05-03T18:10:17.452Z,39.47
2023-05-03T18:13:05.092Z,39.72
2023-05-03T18:15:52.933Z,40.09
2023-05-03T18:18:40.485Z,40.49
2023-05-03T18:21:28.890Z,40.63
2023-05-03T18:24:16.556Z,40.49
2023-05-03T18:27:04.253Z,40.15
2023-05-03T18:29:51.901Z,40.19
2023-05-03T18:32:39.695Z,39.59
2023-05-03T18:35:27.133Z,40.01
2023-05-03T18:38:14.780Z,39.55
2023-05-03T18:41:02.419Z,39.46
2023-05-03T18:43:51.974Z,40.04
2023-05-03T18:46:39.626Z,39.29
2023-05-03T18:49:27.432Z,39.19
2023-05-03T18:52:15.241Z,39.82
2023-05-03T18:55:02.875Z,39.95
2023-05-03T18:57:50.479Z,40.24
2023-05-03T19:00:38.268Z,40.76
2023-05-03T19:03:29.782Z,40.32
2023-05-03T19:06:17.906Z,41.31
2023-05-03T19:09:05.349Z,40.58
2023-05-03T19:11:52.912Z,41.36
2023-05-03T19:14:41.338Z,41.30
2023-05-03T19:17:28.960Z,41.69
2023-05-03T19:20:17.393Z,41.56
2023-05-03T19:23:04.931Z,42.27
2023-05-03T19:25:52.600Z,43.39
2023-05-03T19:28:40.377Z,42.43
2023-05-03T19:31:27.985Z,41.73
2023-05-03T19:34:15.632Z,42.02
2023-05-03T19:37:03.113Z,42.74
2023-05-03T19:39:50.755Z,42.17
2023-05-03T19:42:38.565Z,42.68
2023-05-03T19:45:26.027Z,42.44
2023-05-03T19:48:15.973Z,42.43
2023-05-03T19:51:05.681Z,43.10
2023-05-03T19:53:53.303Z,43.32
2023-05-03T19:56:40.771Z,43.74
2023-05-03T19:59:29.344Z,42.27
2023-05-03T20:02:18.453Z,44.26
2023-05-03T20:05:07.081Z,43.47
2023-05-03T20:07:54.633Z,42.97
2023-05-03T20:10:44.733Z,43.40
2023-05-03T20:13:33.966Z,44.43
2023-05-03T20:16:21.951Z,43.64
2023-05-03T20:19:09.742Z,44.07
2023-05-03T20:21:57.526Z,44.49
2023-05-03T20:24:45.055Z,44.58
2023-05-03T20:27:32.598Z,44.89
2023-05-03T20:30:20.165Z,44.43
2023-05-03T20:33:07.938Z,44.93
2023-05-03T20:35:55.480Z,45.57
2023-05-03T20:38:43.100Z,45.35
2023-05-03T20:41:31.450Z,45.49
2023-05-03T20:44:19.000Z,45.38
2023-05-03T20:47:06.536Z,45.82
2023-05-03T20:49:54.008Z,46.44
2023-05-03T20:52:41.513Z,46.03
2023-05-03T20:55:29.007Z,45.90
2023-05-03T20:58:16.648Z,46.91
2023-05-03T21:01:05.328Z,45.66
2023-05-03T21:03:52.910Z,46.21
2023-05-03T21:06:41.194Z,45.85
2023-05-03T21:09:30.459Z,46.22
2023-05-03T21:12:18.065Z,47.97
2023-05-03T21:15:06.042Z,46.33
2023-05-03T21:17:53.638Z,46.60
2023-05-03T21:20:41.128Z,45.99
2023-05-03T21:23:28.632Z,46.25
2023-05-03T21:26:16.330Z,46.38
2023-05-03T21:29:04.125Z,46.83
2023-05-03T21:31:51.901Z,46.46
2023-05-03T21:34:39.390Z,47.54
2023-05-03T21:37:27.039Z,46.51
2023-05-03T21:40:15.300Z,47.26
2023-05-03T21:43:04.309Z,46.89
2023-05-03T21:45:51.920Z,46.28
2023-05-03T21:48:40.295Z,46.88
2023-05-03T21:51:30.722Z,46.68
2023-05-03T21:54:19.143Z,47.16
2023-05-03T21:57:06.684Z,47.02
2023-05-03T21:59:55.394Z,47.34
2023-05-03T22:02:43.060Z,46.90
2023-05-03T22:05:30.986Z,47.34
2023-05-03T22:08:18.633Z,47.25
2023-05-03T22:11:07.071Z,47.73
2023-05-03T22:14:05.969Z,47.03
2023-05-03T22:16:55.038Z,47.74
2023-05-03T22:19:42.761Z,47.90
2023-05-03T22:22:30.429Z,47.72
2023-05-03T22:25:24.824Z,48.74
2023-05-03T22:28:12.841Z,47.85
2023-05-03T22:31:00.537Z,48.21
2023-05-03T22:33:49.024Z,48.74
2023-05-03T22:36:36.549Z,48.67
2023-05-03T22:39:24.162Z,48.52
2023-05-03T22:42:11.651Z,48.85
2023-05-03T22:44:59.205Z,48.81
2023-05-03T22:47:46.821Z,48.75
2023-05-03T22:50:34.397Z,48.43
2023-05-03T22:53:22.081Z,49.48
2023-05-03T22:56:09.591Z,48.39
2023-05-03T22:58:57.045Z,48.54
2023-05-03T23:01:46.136Z,48.74
2023-05-03T23:04:33.806Z,48.88
2023-05-03T23:07:21.506Z,47.91
2023-05-03T23:10:09.791Z,48.46
2023-05-03T23:12:57.573Z,48.38
2023-05-03T23:15:45.129Z,48.27
2023-05-03T23:18:32.806Z,47.98
2023-05-03T23:21:20.656Z,48.15
2023-05-03T23:24:08.378Z,47.93
2023-05-03T23:26:55.819Z,48.76
2023-05-03T23:29:43.502Z,48.49
2023-05-03T23:32:31.445Z,48.50
2023-05-03T23:35:20.776Z,49.07
2023-05-03T23:38:08.430Z,48.74
2023-05-03T23:40:55.981Z,48.55
2023-05-03T23:43:43.508Z,48.77
2023-05-03T23:46:33.741Z,49.05
2023-05-03T23:49:21.577Z,48.62
2023-05-03T23:52:09.926Z,48.34
2023-05-03T23:54:57.429Z,48.17
2023-05-03T23:57:44.988Z,48.47
